sensor_id;sensor_type;location;lat;lon;timestamp;P1;durP1;ratioP1;P2;durP2;ratioP2
68509;SDS011;55512;50.102;19.958;2022-08-21T00:00:55;19.50;;;12.00;;
68509;SDS011;55512;50.102;19.958;2022-08-21T00:03:21;16.90;;;10.50;;
68509;SDS011;55512;50.102;19.958;2022-08-21T00:05:48;18.70;;;11.20;;
68509;SDS011;55512;50.102;19.958;2022-08-21T00:08:16;18.10;;;11.70;;
68509;SDS011;55512;50.102;19.958;2022-08-21T00:10:44;22.00;;;11.20;;
68509;SDS011;55512;50.102;19.958;2022-08-21T00:13:10;19.10;;;10.80;;
68509;SDS011;55512;50.102;19.958;2022-08-21T00:15:38;19.30;;;12.30;;
68509;SDS011;55512;50.102;19.958;2022-08-21T00:18:06;19.00;;;11.90;;
68509;SDS011;55512;50.102;19.958;2022-08-21T00:20:34;18.60;;;12.00;;
68509;SDS011;55512;50.102;19.958;2022-08-21T00:23:00;17.70;;;11.10;;
68509;SDS011;55512;50.102;19.958;2022-08-21T00:25:26;17.50;;;9.90;;
68509;SDS011;55512;50.102;19.958;2022-08-21T00:27:53;16.70;;;10.30;;
68509;SDS011;55512;50.102;19.958;2022-08-21T00:30:22;16.60;;;10.10;;
68509;SDS011;55512;50.102;19.958;2022-08-21T00:32:51;16.40;;;10.80;;
68509;SDS011;55512;50.102;19.958;2022-08-21T00:35:22;18.10;;;11.20;;
68509;SDS011;55512;50.102;19.958;2022-08-21T00:37:50;19.60;;;11.60;;
68509;SDS011;55512;50.102;19.958;2022-08-21T00:40:20;17.00;;;11.80;;
68509;SDS011;55512;50.102;19.958;2022-08-21T00:42:49;18.30;;;11.30;;
68509;SDS011;55512;50.102;19.958;2022-08-21T00:45:16;15.20;;;9.60;;
68509;SDS011;55512;50.102;19.958;2022-08-21T00:47:41;14.90;;;9.50;;
68509;SDS011;55512;50.102;19.958;2022-08-21T00:50:09;16.20;;;9.90;;
68509;SDS011;55512;50.102;19.958;2022-08-21T00:52:37;15.70;;;10.30;;
68509;SDS011;55512;50.102;19.958;2022-08-21T00:55:07;17.90;;;10.70;;
68509;SDS011;55512;50.102;19.958;2022-08-21T00:57:47;16.70;;;11.20;;
68509;SDS011;55512;50.102;19.958;2022-08-21T01:00:20;16.40;;;9.50;;
68509;SDS011;55512;50.102;19.958;2022-08-21T01:02:48;15.20;;;10.20;;
68509;SDS011;55512;50.102;19.958;2022-08-21T01:05:14;15.00;;;9.10;;
68509;SDS011;55512;50.102;19.958;2022-08-21T01:07:41;17.30;;;10.00;;
68509;SDS011;55512;50.102;19.958;2022-08-21T01:10:08;18.40;;;10.90;;
68509;SDS011;55512;50.102;19.958;2022-08-21T01:12:35;19.70;;;10.50;;
68509;SDS011;55512;50.102;19.958;2022-08-21T01:15:03;18.70;;;11.00;;
68509;SDS011;55512;50.102;19.958;2022-08-21T01:17:31;16.90;;;10.50;;
68509;SDS011;55512;50.102;19.958;2022-08-21T01:19:58;17.30;;;10.30;;
68509;SDS011;55512;50.102;19.958;2022-08-21T01:22:25;16.40;;;10.50;;
68509;SDS011;55512;50.102;19.958;2022-08-21T01:24:51;15.00;;;10.00;;
68509;SDS011;55512;50.102;19.958;2022-08-21T01:27:17;17.60;;;9.90;;
68509;SDS011;55512;50.102;19.958;2022-08-21T01:29:54;16.00;;;10.00;;
68509;SDS011;55512;50.102;19.958;2022-08-21T01:32:22;17.10;;;10.90;;
68509;SDS011;55512;50.102;19.958;2022-08-21T01:34:50;18.10;;;11.10;;
68509;SDS011;55512;50.102;19.958;2022-08-21T01:37:18;18.70;;;11.30;;
68509;SDS011;55512;50.102;19.958;2022-08-21T01:39:45;16.80;;;10.30;;
68509;SDS011;55512;50.102;19.958;2022-08-21T01:42:12;16.60;;;10.30;;
68509;SDS011;55512;50.102;19.958;2022-08-21T01:44:39;16.50;;;10.20;;
68509;SDS011;55512;50.102;19.958;2022-08-21T01:47:09;17.20;;;11.20;;
68509;SDS011;55512;50.102;19.958;2022-08-21T01:49:37;19.40;;;11.10;;
68509;SDS011;55512;50.102;19.958;2022-08-21T01:52:04;18.30;;;10.80;;
68509;SDS011;55512;50.102;19.958;2022-08-21T01:54:30;16.80;;;11.10;;
68509;SDS011;55512;50.102;19.958;2022-08-21T01:56:56;18.20;;;10.80;;
68509;SDS011;55512;50.102;19.958;2022-08-21T01:59:24;19.20;;;10.90;;
68509;SDS011;55512;50.102;19.958;2022-08-21T02:01:50;17.40;;;10.40;;
68509;SDS011;55512;50.102;19.958;2022-08-21T02:04:19;16.60;;;10.70;;
68509;SDS011;55512;50.102;19.958;2022-08-21T02:06:45;17.50;;;9.40;;
68509;SDS011;55512;50.102;19.958;2022-08-21T02:09:11;17.00;;;10.00;;
68509;SDS011;55512;50.102;19.958;2022-08-21T02:11:39;17.40;;;10.60;;
68509;SDS011;55512;50.102;19.958;2022-08-21T02:14:11;19.00;;;11.10;;
68509;SDS011;55512;50.102;19.958;2022-08-21T02:16:40;17.50;;;11.00;;
68509;SDS011;55512;50.102;19.958;2022-08-21T02:19:07;15.80;;;9.60;;
68509;SDS011;55512;50.102;19.958;2022-08-21T02:21:33;16.00;;;10.70;;
68509;SDS011;55512;50.102;19.958;2022-08-21T02:23:59;17.40;;;11.00;;
68509;SDS011;55512;50.102;19.958;2022-08-21T02:26:25;16.80;;;10.10;;
68509;SDS011;55512;50.102;19.958;2022-08-21T02:28:52;17.50;;;10.80;;
68509;SDS011;55512;50.102;19.958;2022-08-21T02:31:17;16.00;;;11.10;;
68509;SDS011;55512;50.102;19.958;2022-08-21T02:33:43;15.60;;;10.60;;
68509;SDS011;55512;50.102;19.958;2022-08-21T02:36:10;18.20;;;11.50;;
68509;SDS011;55512;50.102;19.958;2022-08-21T02:38:38;18.40;;;11.40;;
68509;SDS011;55512;50.102;19.958;2022-08-21T02:41:08;18.90;;;11.80;;
68509;SDS011;55512;50.102;19.958;2022-08-21T02:43:36;18.80;;;11.80;;
68509;SDS011;55512;50.102;19.958;2022-08-21T02:46:03;19.70;;;12.50;;
68509;SDS011;55512;50.102;19.958;2022-08-21T02:48:31;17.80;;;11.60;;
68509;SDS011;55512;50.102;19.958;2022-08-21T02:51:04;17.40;;;11.30;;
68509;SDS011;55512;50.102;19.958;2022-08-21T02:53:32;19.10;;;11.80;;
68509;SDS011;55512;50.102;19.958;2022-08-21T02:56:00;18.10;;;12.30;;
68509;SDS011;55512;50.102;19.958;2022-08-21T02:58:34;19.60;;;12.90;;
68509;SDS011;55512;50.102;19.958;2022-08-21T03:01:04;19.20;;;12.20;;
68509;SDS011;55512;50.102;19.958;2022-08-21T03:03:36;18.50;;;12.00;;
68509;SDS011;55512;50.102;19.958;2022-08-21T03:06:05;20.90;;;11.80;;
68509;SDS011;55512;50.102;19.958;2022-08-21T03:08:33;17.60;;;11.40;;
68509;SDS011;55512;50.102;19.958;2022-08-21T03:10:59;17.60;;;11.20;;
68509;SDS011;55512;50.102;19.958;2022-08-21T03:13:24;23.40;;;13.10;;
68509;SDS011;55512;50.102;19.958;2022-08-21T03:15:50;18.40;;;12.20;;
68509;SDS011;55512;50.102;19.958;2022-08-21T03:18:15;17.70;;;11.90;;
68509;SDS011;55512;50.102;19.958;2022-08-21T03:20:42;20.00;;;12.10;;
68509;SDS011;55512;50.102;19.958;2022-08-21T03:23:10;23.20;;;12.30;;
68509;SDS011;55512;50.102;19.958;2022-08-21T03:25:37;18.90;;;11.50;;
68509;SDS011;55512;50.102;19.958;2022-08-21T03:28:06;18.20;;;11.80;;
68509;SDS011;55512;50.102;19.958;2022-08-21T03:30:36;17.60;;;11.40;;
68509;SDS011;55512;50.102;19.958;2022-08-21T03:33:02;18.20;;;11.00;;
68509;SDS011;55512;50.102;19.958;2022-08-21T03:35:28;20.20;;;12.00;;
68509;SDS011;55512;50.102;19.958;2022-08-21T03:37:54;17.30;;;11.50;;
68509;SDS011;55512;50.102;19.958;2022-08-21T03:40:21;20.30;;;11.10;;
68509;SDS011;55512;50.102;19.958;2022-08-21T03:42:49;17.70;;;10.80;;
68509;SDS011;55512;50.102;19.958;2022-08-21T03:45:17;17.90;;;11.20;;
68509;SDS011;55512;50.102;19.958;2022-08-21T03:47:59;18.70;;;11.30;;
68509;SDS011;55512;50.102;19.958;2022-08-21T03:50:31;18.20;;;11.10;;
68509;SDS011;55512;50.102;19.958;2022-08-21T03:52:59;21.60;;;12.30;;
68509;SDS011;55512;50.102;19.958;2022-08-21T03:55:25;18.70;;;11.80;;
68509;SDS011;55512;50.102;19.958;2022-08-21T03:57:52;18.00;;;11.70;;
68509;SDS011;55512;50.102;19.958;2022-08-21T04:00:19;18.10;;;11.70;;
68509;SDS011;55512;50.102;19.958;2022-08-21T04:02:45;17.30;;;10.30;;
68509;SDS011;55512;50.102;19.958;2022-08-21T04:05:13;18.00;;;11.60;;
68509;SDS011;55512;50.102;19.958;2022-08-21T04:07:59;21.00;;;11.90;;
68509;SDS011;55512;50.102;19.958;2022-08-21T04:10:29;20.60;;;12.70;;
68509;SDS011;55512;50.102;19.958;2022-08-21T04:12:57;20.70;;;13.10;;
68509;SDS011;55512;50.102;19.958;2022-08-21T04:15:24;19.90;;;11.70;;
68509;SDS011;55512;50.102;19.958;2022-08-21T04:17:51;20.40;;;12.00;;
68509;SDS011;55512;50.102;19.958;2022-08-21T04:20:18;19.80;;;11.50;;
68509;SDS011;55512;50.102;19.958;2022-08-21T04:22:44;17.80;;;11.20;;
68509;SDS011;55512;50.102;19.958;2022-08-21T04:25:12;19.20;;;12.10;;
68509;SDS011;55512;50.102;19.958;2022-08-21T04:27:38;19.50;;;11.50;;
68509;SDS011;55512;50.102;19.958;2022-08-21T04:30:06;18.90;;;12.10;;
68509;SDS011;55512;50.102;19.958;2022-08-21T04:32:34;18.40;;;12.50;;
68509;SDS011;55512;50.102;19.958;2022-08-21T04:35:04;18.70;;;12.10;;
68509;SDS011;55512;50.102;19.958;2022-08-21T04:37:33;21.10;;;12.50;;
68509;SDS011;55512;50.102;19.958;2022-08-21T04:40:00;17.80;;;11.40;;
68509;SDS011;55512;50.102;19.958;2022-08-21T04:42:27;20.20;;;12.70;;
68509;SDS011;55512;50.102;19.958;2022-08-21T04:44:53;18.90;;;11.90;;
68509;SDS011;55512;50.102;19.958;2022-08-21T04:47:20;19.40;;;12.80;;
68509;SDS011;55512;50.102;19.958;2022-08-21T04:49:46;20.10;;;12.60;;
68509;SDS011;55512;50.102;19.958;2022-08-21T04:52:16;17.30;;;12.00;;
68509;SDS011;55512;50.102;19.958;2022-08-21T04:54:45;21.50;;;12.90;;
68509;SDS011;55512;50.102;19.958;2022-08-21T04:57:13;21.60;;;12.50;;
68509;SDS011;55512;50.102;19.958;2022-08-21T04:59:45;23.40;;;14.20;;
68509;SDS011;55512;50.102;19.958;2022-08-21T05:02:13;18.40;;;11.50;;
68509;SDS011;55512;50.102;19.958;2022-08-21T05:04:44;22.60;;;13.10;;
68509;SDS011;55512;50.102;19.958;2022-08-21T05:07:16;21.70;;;14.30;;
68509;SDS011;55512;50.102;19.958;2022-08-21T05:09:47;23.40;;;14.70;;
68509;SDS011;55512;50.102;19.958;2022-08-21T05:12:14;23.00;;;14.60;;
68509;SDS011;55512;50.102;19.958;2022-08-21T05:14:40;23.40;;;13.60;;
68509;SDS011;55512;50.102;19.958;2022-08-21T05:17:07;24.80;;;13.80;;
68509;SDS011;55512;50.102;19.958;2022-08-21T05:19:34;22.70;;;12.90;;
68509;SDS011;55512;50.102;19.958;2022-08-21T05:22:00;21.40;;;12.90;;
68509;SDS011;55512;50.102;19.958;2022-08-21T05:24:26;21.70;;;13.40;;
68509;SDS011;55512;50.102;19.958;2022-08-21T05:26:53;23.80;;;15.50;;
68509;SDS011;55512;50.102;19.958;2022-08-21T05:29:18;24.70;;;15.60;;
68509;SDS011;55512;50.102;19.958;2022-08-21T05:31:46;28.90;;;15.50;;
68509;SDS011;55512;50.102;19.958;2022-08-21T05:34:14;22.00;;;14.30;;
68509;SDS011;55512;50.102;19.958;2022-08-21T05:36:43;23.80;;;15.20;;
68509;SDS011;55512;50.102;19.958;2022-08-21T05:39:09;23.30;;;14.10;;
68509;SDS011;55512;50.102;19.958;2022-08-21T05:41:35;20.70;;;12.30;;
68509;SDS011;55512;50.102;19.958;2022-08-21T05:44:00;22.50;;;14.30;;
68509;SDS011;55512;50.102;19.958;2022-08-21T05:46:26;22.10;;;13.60;;
68509;SDS011;55512;50.102;19.958;2022-08-21T05:48:52;23.80;;;13.90;;
68509;SDS011;55512;50.102;19.958;2022-08-21T05:51:18;22.10;;;15.00;;
68509;SDS011;55512;50.102;19.958;2022-08-21T05:53:43;20.20;;;13.30;;
68509;SDS011;55512;50.102;19.958;2022-08-21T05:56:10;22.70;;;14.60;;
68509;SDS011;55512;50.102;19.958;2022-08-21T05:58:38;22.40;;;13.20;;
68509;SDS011;55512;50.102;19.958;2022-08-21T06:01:04;23.10;;;13.80;;
68509;SDS011;55512;50.102;19.958;2022-08-21T06:03:33;20.50;;;13.10;;
68509;SDS011;55512;50.102;19.958;2022-08-21T06:06:00;19.60;;;12.30;;
68509;SDS011;55512;50.102;19.958;2022-08-21T06:08:27;18.70;;;11.20;;
68509;SDS011;55512;50.102;19.958;2022-08-21T06:10:56;18.60;;;11.60;;
68509;SDS011;55512;50.102;19.958;2022-08-21T06:13:24;20.20;;;12.40;;
68509;SDS011;55512;50.102;19.958;2022-08-21T06:16:10;19.90;;;12.60;;
68509;SDS011;55512;50.102;19.958;2022-08-21T06:18:39;20.60;;;12.40;;
68509;SDS011;55512;50.102;19.958;2022-08-21T06:21:05;18.90;;;12.20;;
68509;SDS011;55512;50.102;19.958;2022-08-21T06:23:33;18.80;;;12.30;;
68509;SDS011;55512;50.102;19.958;2022-08-21T06:26:00;18.30;;;11.10;;
68509;SDS011;55512;50.102;19.958;2022-08-21T06:28:27;21.90;;;12.10;;
68509;SDS011;55512;50.102;19.958;2022-08-21T06:30:52;20.80;;;11.50;;
68509;SDS011;55512;50.102;19.958;2022-08-21T06:33:18;20.30;;;11.70;;
68509;SDS011;55512;50.102;19.958;2022-08-21T06:35:44;17.60;;;11.60;;
68509;SDS011;55512;50.102;19.958;2022-08-21T06:38:10;18.50;;;11.00;;
68509;SDS011;55512;50.102;19.958;2022-08-21T06:40:36;20.70;;;12.20;;
68509;SDS011;55512;50.102;19.958;2022-08-21T06:43:11;19.70;;;12.70;;
68509;SDS011;55512;50.102;19.958;2022-08-21T06:45:39;18.50;;;12.60;;
68509;SDS011;55512;50.102;19.958;2022-08-21T06:48:05;21.50;;;13.30;;
68509;SDS011;55512;50.102;19.958;2022-08-21T06:50:35;21.50;;;13.00;;
68509;SDS011;55512;50.102;19.958;2022-08-21T06:53:07;17.30;;;11.40;;
68509;SDS011;55512;50.102;19.958;2022-08-21T06:55:36;17.10;;;11.10;;
68509;SDS011;55512;50.102;19.958;2022-08-21T06:58:04;22.20;;;12.50;;
68509;SDS011;55512;50.102;19.958;2022-08-21T07:00:31;18.20;;;10.90;;
68509;SDS011;55512;50.102;19.958;2022-08-21T07:02:58;18.40;;;11.10;;
68509;SDS011;55512;50.102;19.958;2022-08-21T07:05:28;17.50;;;11.30;;
68509;SDS011;55512;50.102;19.958;2022-08-21T07:07:55;22.60;;;13.50;;
68509;SDS011;55512;50.102;19.958;2022-08-21T07:10:22;19.30;;;13.00;;
68509;SDS011;55512;50.102;19.958;2022-08-21T07:12:50;19.80;;;12.70;;
68509;SDS011;55512;50.102;19.958;2022-08-21T07:15:16;19.40;;;11.90;;
68509;SDS011;55512;50.102;19.958;2022-08-21T07:17:42;18.20;;;11.40;;
68509;SDS011;55512;50.102;19.958;2022-08-21T07:20:10;17.80;;;11.70;;
68509;SDS011;55512;50.102;19.958;2022-08-21T07:22:38;17.20;;;10.80;;
68509;SDS011;55512;50.102;19.958;2022-08-21T07:25:06;17.60;;;11.50;;
68509;SDS011;55512;50.102;19.958;2022-08-21T07:27:33;17.20;;;11.70;;
68509;SDS011;55512;50.102;19.958;2022-08-21T07:29:58;22.10;;;13.00;;
68509;SDS011;55512;50.102;19.958;2022-08-21T07:32:24;19.60;;;12.10;;
68509;SDS011;55512;50.102;19.958;2022-08-21T07:34:50;20.40;;;12.10;;
68509;SDS011;55512;50.102;19.958;2022-08-21T07:37:16;18.00;;;12.60;;
68509;SDS011;55512;50.102;19.958;2022-08-21T07:39:41;18.70;;;12.40;;
68509;SDS011;55512;50.102;19.958;2022-08-21T07:42:07;19.70;;;13.10;;
68509;SDS011;55512;50.102;19.958;2022-08-21T07:44:33;22.00;;;13.60;;
68509;SDS011;55512;50.102;19.958;2022-08-21T07:47:00;19.70;;;12.90;;
68509;SDS011;55512;50.102;19.958;2022-08-21T07:49:27;18.70;;;12.30;;
68509;SDS011;55512;50.102;19.958;2022-08-21T07:51:53;17.60;;;11.60;;
68509;SDS011;55512;50.102;19.958;2022-08-21T07:54:18;18.30;;;11.80;;
68509;SDS011;55512;50.102;19.958;2022-08-21T07:56:44;20.60;;;12.40;;
68509;SDS011;55512;50.102;19.958;2022-08-21T07:59:10;18.50;;;13.50;;
68509;SDS011;55512;50.102;19.958;2022-08-21T08:01:36;18.10;;;12.60;;
68509;SDS011;55512;50.102;19.958;2022-08-21T08:04:01;20.30;;;13.00;;
68509;SDS011;55512;50.102;19.958;2022-08-21T08:06:27;18.70;;;12.00;;
68509;SDS011;55512;50.102;19.958;2022-08-21T08:08:53;17.60;;;11.80;;
68509;SDS011;55512;50.102;19.958;2022-08-21T08:11:18;16.70;;;12.00;;
68509;SDS011;55512;50.102;19.958;2022-08-21T08:13:50;17.40;;;12.60;;
68509;SDS011;55512;50.102;19.958;2022-08-21T08:16:17;19.10;;;12.40;;
68509;SDS011;55512;50.102;19.958;2022-08-21T08:18:44;19.70;;;12.90;;
68509;SDS011;55512;50.102;19.958;2022-08-21T08:21:10;28.70;;;18.70;;
68509;SDS011;55512;50.102;19.958;2022-08-21T08:23:38;22.70;;;14.40;;
68509;SDS011;55512;50.102;19.958;2022-08-21T08:26:04;20.80;;;12.20;;
68509;SDS011;55512;50.102;19.958;2022-08-21T08:28:31;17.10;;;11.50;;
68509;SDS011;55512;50.102;19.958;2022-08-21T08:30:59;18.10;;;12.10;;
68509;SDS011;55512;50.102;19.958;2022-08-21T08:33:25;17.80;;;11.30;;
68509;SDS011;55512;50.102;19.958;2022-08-21T08:35:51;16.60;;;11.80;;
68509;SDS011;55512;50.102;19.958;2022-08-21T08:38:19;18.90;;;12.60;;
68509;SDS011;55512;50.102;19.958;2022-08-21T08:43:40;17.60;;;12.70;;
68509;SDS011;55512;50.102;19.958;2022-08-21T08:46:14;18.20;;;12.60;;
68509;SDS011;55512;50.102;19.958;2022-08-21T08:49:00;19.50;;;13.10;;
68509;SDS011;55512;50.102;19.958;2022-08-21T08:51:46;18.50;;;11.80;;
68509;SDS011;55512;50.102;19.958;2022-08-21T08:54:39;19.30;;;12.30;;
68509;SDS011;55512;50.102;19.958;2022-08-21T08:57:17;18.30;;;11.10;;
68509;SDS011;55512;50.102;19.958;2022-08-21T08:59:48;18.30;;;12.20;;
68509;SDS011;55512;50.102;19.958;2022-08-21T09:02:19;19.00;;;12.40;;
68509;SDS011;55512;50.102;19.958;2022-08-21T09:04:47;20.00;;;12.80;;
68509;SDS011;55512;50.102;19.958;2022-08-21T09:07:24;19.40;;;13.10;;
68509;SDS011;55512;50.102;19.958;2022-08-21T09:10:22;20.20;;;14.00;;
68509;SDS011;55512;50.102;19.958;2022-08-21T09:13:02;20.60;;;12.80;;
68509;SDS011;55512;50.102;19.958;2022-08-21T09:16:00;15.60;;;10.30;;
68509;SDS011;55512;50.102;19.958;2022-08-21T09:25:00;17.30;;;11.90;;
68509;SDS011;55512;50.102;19.958;2022-08-21T09:27:33;18.90;;;13.60;;
68509;SDS011;55512;50.102;19.958;2022-08-21T09:29:59;21.50;;;13.20;;
68509;SDS011;55512;50.102;19.958;2022-08-21T09:32:29;19.60;;;14.20;;
68509;SDS011;55512;50.102;19.958;2022-08-21T09:37:55;21.10;;;12.30;;
68509;SDS011;55512;50.102;19.958;2022-08-21T09:40:41;24.30;;;12.60;;
68509;SDS011;55512;50.102;19.958;2022-08-21T09:45:46;20.10;;;13.10;;
68509;SDS011;55512;50.102;19.958;2022-08-21T09:48:20;19.80;;;13.40;;
68509;SDS011;55512;50.102;19.958;2022-08-21T09:50:49;20.30;;;13.40;;
68509;SDS011;55512;50.102;19.958;2022-08-21T09:53:21;20.30;;;13.60;;
68509;SDS011;55512;50.102;19.958;2022-08-21T09:58:49;18.40;;;13.20;;
68509;SDS011;55512;50.102;19.958;2022-08-21T10:01:23;16.00;;;11.90;;
68509;SDS011;55512;50.102;19.958;2022-08-21T10:04:06;17.40;;;12.80;;
68509;SDS011;55512;50.102;19.958;2022-08-21T10:06:33;18.00;;;13.40;;
68509;SDS011;55512;50.102;19.958;2022-08-21T10:09:10;21.50;;;14.90;;
68509;SDS011;55512;50.102;19.958;2022-08-21T10:11:36;21.10;;;14.50;;
68509;SDS011;55512;50.102;19.958;2022-08-21T10:17:04;20.50;;;13.80;;
68509;SDS011;55512;50.102;19.958;2022-08-21T10:28:33;21.50;;;13.40;;
68509;SDS011;55512;50.102;19.958;2022-08-21T10:31:19;19.30;;;12.90;;
68509;SDS011;55512;50.102;19.958;2022-08-21T10:37:41;20.50;;;14.20;;
68509;SDS011;55512;50.102;19.958;2022-08-21T10:45:57;20.30;;;12.00;;
68509;SDS011;55512;50.102;19.958;2022-08-21T10:51:40;21.40;;;14.50;;
68509;SDS011;55512;50.102;19.958;2022-08-21T10:57:34;22.30;;;15.40;;
68509;SDS011;55512;50.102;19.958;2022-08-21T11:00:30;23.20;;;15.40;;
68509;SDS011;55512;50.102;19.958;2022-08-21T11:03:07;24.20;;;15.10;;
68509;SDS011;55512;50.102;19.958;2022-08-21T11:05:51;20.60;;;13.30;;
68509;SDS011;55512;50.102;19.958;2022-08-21T11:08:33;22.20;;;13.60;;
68509;SDS011;55512;50.102;19.958;2022-08-21T11:11:13;22.70;;;14.60;;
68509;SDS011;55512;50.102;19.958;2022-08-21T11:16:36;23.30;;;14.60;;
68509;SDS011;55512;50.102;19.958;2022-08-21T11:19:13;22.40;;;13.10;;
68509;SDS011;55512;50.102;19.958;2022-08-21T11:24:44;14.00;;;7.80;;
68509;SDS011;55512;50.102;19.958;2022-08-21T11:27:24;14.20;;;7.70;;
68509;SDS011;55512;50.102;19.958;2022-08-21T11:29:56;13.30;;;7.70;;
68509;SDS011;55512;50.102;19.958;2022-08-21T11:37:55;10.30;;;6.00;;
68509;SDS011;55512;50.102;19.958;2022-08-21T11:47:00;9.00;;;3.60;;
68509;SDS011;55512;50.102;19.958;2022-08-21T11:50:14;6.60;;;3.30;;
68509;SDS011;55512;50.102;19.958;2022-08-21T11:52:50;7.20;;;3.40;;
68509;SDS011;55512;50.102;19.958;2022-08-21T12:01:23;7.10;;;3.10;;
68509;SDS011;55512;50.102;19.958;2022-08-21T12:04:15;6.30;;;2.70;;
68509;SDS011;55512;50.102;19.958;2022-08-21T12:06:45;6.60;;;3.00;;
68509;SDS011;55512;50.102;19.958;2022-08-21T12:09:29;11.50;;;4.00;;
68509;SDS011;55512;50.102;19.958;2022-08-21T12:12:21;6.50;;;3.00;;
68509;SDS011;55512;50.102;19.958;2022-08-21T12:14:51;7.90;;;2.60;;
68509;SDS011;55512;50.102;19.958;2022-08-21T12:17:38;7.30;;;3.40;;
68509;SDS011;55512;50.102;19.958;2022-08-21T12:22:54;6.60;;;3.10;;
68509;SDS011;55512;50.102;19.958;2022-08-21T12:25:37;9.60;;;4.70;;
68509;SDS011;55512;50.102;19.958;2022-08-21T12:28:11;9.00;;;4.40;;
68509;SDS011;55512;50.102;19.958;2022-08-21T12:30:44;7.40;;;3.50;;
68509;SDS011;55512;50.102;19.958;2022-08-21T12:33:27;8.90;;;4.70;;
68509;SDS011;55512;50.102;19.958;2022-08-21T12:36:12;19.10;;;13.40;;
68509;SDS011;55512;50.102;19.958;2022-08-21T12:41:32;13.30;;;7.60;;
68509;SDS011;55512;50.102;19.958;2022-08-21T12:44:32;7.30;;;3.70;;
68509;SDS011;55512;50.102;19.958;2022-08-21T12:47:25;6.80;;;3.30;;
68509;SDS011;55512;50.102;19.958;2022-08-21T12:50:20;7.80;;;3.30;;
68509;SDS011;55512;50.102;19.958;2022-08-21T12:53:06;7.90;;;3.60;;
68509;SDS011;55512;50.102;19.958;2022-08-21T12:55:41;8.70;;;3.90;;
68509;SDS011;55512;50.102;19.958;2022-08-21T12:58:24;9.00;;;3.80;;
68509;SDS011;55512;50.102;19.958;2022-08-21T13:04:19;7.40;;;3.20;;
68509;SDS011;55512;50.102;19.958;2022-08-21T13:06:52;6.70;;;2.90;;
68509;SDS011;55512;50.102;19.958;2022-08-21T13:09:29;6.70;;;2.80;;
68509;SDS011;55512;50.102;19.958;2022-08-21T13:11:57;6.40;;;2.90;;
68509;SDS011;55512;50.102;19.958;2022-08-21T13:14:39;6.90;;;2.40;;
68509;SDS011;55512;50.102;19.958;2022-08-21T13:17:09;7.40;;;2.30;;
68509;SDS011;55512;50.102;19.958;2022-08-21T13:19:36;5.30;;;2.30;;
68509;SDS011;55512;50.102;19.958;2022-08-21T13:22:02;7.30;;;2.80;;
68509;SDS011;55512;50.102;19.958;2022-08-21T13:24:32;5.10;;;2.20;;
68509;SDS011;55512;50.102;19.958;2022-08-21T13:27:00;5.80;;;2.60;;
68509;SDS011;55512;50.102;19.958;2022-08-21T13:29:31;5.10;;;2.40;;
68509;SDS011;55512;50.102;19.958;2022-08-21T13:32:01;6.40;;;2.90;;
68509;SDS011;55512;50.102;19.958;2022-08-21T13:34:33;5.20;;;2.70;;
68509;SDS011;55512;50.102;19.958;2022-08-21T13:37:06;5.20;;;2.40;;
68509;SDS011;55512;50.102;19.958;2022-08-21T13:39:34;5.40;;;2.80;;
68509;SDS011;55512;50.102;19.958;2022-08-21T13:42:02;6.60;;;3.10;;
68509;SDS011;55512;50.102;19.958;2022-08-21T13:44:41;6.10;;;2.80;;
68509;SDS011;55512;50.102;19.958;2022-08-21T13:47:12;5.60;;;2.90;;
68509;SDS011;55512;50.102;19.958;2022-08-21T13:49:45;6.40;;;2.90;;
68509;SDS011;55512;50.102;19.958;2022-08-21T13:55:00;5.70;;;3.10;;
68509;SDS011;55512;50.102;19.958;2022-08-21T13:57:34;5.90;;;2.90;;
68509;SDS011;55512;50.102;19.958;2022-08-21T14:00:30;7.30;;;3.50;;
68509;SDS011;55512;50.102;19.958;2022-08-21T14:03:06;5.80;;;3.20;;
68509;SDS011;55512;50.102;19.958;2022-08-21T14:05:44;6.90;;;3.10;;
68509;SDS011;55512;50.102;19.958;2022-08-21T14:10:44;5.90;;;3.60;;
68509;SDS011;55512;50.102;19.958;2022-08-21T14:13:42;6.90;;;3.60;;
68509;SDS011;55512;50.102;19.958;2022-08-21T14:16:23;8.00;;;4.10;;
68509;SDS011;55512;50.102;19.958;2022-08-21T14:21:50;7.40;;;3.60;;
68509;SDS011;55512;50.102;19.958;2022-08-21T14:27:03;8.20;;;3.90;;
68509;SDS011;55512;50.102;19.958;2022-08-21T14:29:40;5.80;;;3.20;;
68509;SDS011;55512;50.102;19.958;2022-08-21T14:34:38;6.60;;;3.60;;
68509;SDS011;55512;50.102;19.958;2022-08-21T14:37:05;6.70;;;3.40;;
68509;SDS011;55512;50.102;19.958;2022-08-21T14:39:30;6.20;;;3.40;;
68509;SDS011;55512;50.102;19.958;2022-08-21T14:41:58;5.90;;;3.60;;
68509;SDS011;55512;50.102;19.958;2022-08-21T14:44:24;6.90;;;3.70;;
68509;SDS011;55512;50.102;19.958;2022-08-21T14:46:50;6.80;;;4.20;;
68509;SDS011;55512;50.102;19.958;2022-08-21T14:49:15;6.20;;;3.40;;
68509;SDS011;55512;50.102;19.958;2022-08-21T14:51:41;7.00;;;3.10;;
68509;SDS011;55512;50.102;19.958;2022-08-21T14:54:07;5.80;;;3.10;;
68509;SDS011;55512;50.102;19.958;2022-08-21T14:56:34;5.70;;;2.70;;
68509;SDS011;55512;50.102;19.958;2022-08-21T14:59:04;5.70;;;2.80;;
68509;SDS011;55512;50.102;19.958;2022-08-21T15:01:44;7.10;;;2.70;;
68509;SDS011;55512;50.102;19.958;2022-08-21T15:04:10;5.50;;;2.90;;
68509;SDS011;55512;50.102;19.958;2022-08-21T15:06:36;5.40;;;2.20;;
68509;SDS011;55512;50.102;19.958;2022-08-21T15:09:02;5.30;;;2.60;;
68509;SDS011;55512;50.102;19.958;2022-08-21T15:11:30;5.50;;;2.50;;
68509;SDS011;55512;50.102;19.958;2022-08-21T15:14:00;4.20;;;2.30;;
68509;SDS011;55512;50.102;19.958;2022-08-21T15:16:29;4.60;;;2.60;;
68509;SDS011;55512;50.102;19.958;2022-08-21T15:18:57;4.20;;;2.10;;
68509;SDS011;55512;50.102;19.958;2022-08-21T15:21:23;4.70;;;2.40;;
68509;SDS011;55512;50.102;19.958;2022-08-21T15:23:48;5.20;;;2.60;;
68509;SDS011;55512;50.102;19.958;2022-08-21T15:26:14;5.00;;;2.40;;
68509;SDS011;55512;50.102;19.958;2022-08-21T15:28:40;4.70;;;2.50;;
68509;SDS011;55512;50.102;19.958;2022-08-21T15:31:07;4.20;;;2.50;;
68509;SDS011;55512;50.102;19.958;2022-08-21T15:33:33;5.20;;;3.10;;
68509;SDS011;55512;50.102;19.958;2022-08-21T15:36:00;7.20;;;3.00;;
68509;SDS011;55512;50.102;19.958;2022-08-21T15:38:26;5.40;;;2.70;;
68509;SDS011;55512;50.102;19.958;2022-08-21T15:40:51;5.40;;;2.60;;
68509;SDS011;55512;50.102;19.958;2022-08-21T15:43:29;5.00;;;2.70;;
68509;SDS011;55512;50.102;19.958;2022-08-21T15:46:01;5.20;;;3.20;;
68509;SDS011;55512;50.102;19.958;2022-08-21T15:48:28;6.70;;;4.00;;
68509;SDS011;55512;50.102;19.958;2022-08-21T15:50:54;5.70;;;3.40;;
68509;SDS011;55512;50.102;19.958;2022-08-21T15:53:19;6.80;;;3.70;;
68509;SDS011;55512;50.102;19.958;2022-08-21T15:55:45;11.20;;;4.20;;
68509;SDS011;55512;50.102;19.958;2022-08-21T15:58:14;7.40;;;4.00;;
68509;SDS011;55512;50.102;19.958;2022-08-21T16:00:41;7.60;;;4.10;;
68509;SDS011;55512;50.102;19.958;2022-08-21T16:03:11;7.80;;;4.50;;
68509;SDS011;55512;50.102;19.958;2022-08-21T16:05:42;8.20;;;4.50;;